sensor_id;sensor_type;location;lat;lon;timestamp;P1;durP1;ratioP1;P2;durP2;ratioP2
24030;SDS011;12240;51.142;22.486;2022-08-21T09:57:58;5.50;;;3.57;;
24030;SDS011;12240;51.142;22.486;2022-08-21T10:00:34;7.72;;;3.60;;
24030;SDS011;12240;51.142;22.486;2022-08-21T10:03:09;5.13;;;3.60;;
24030;SDS011;12240;51.142;22.486;2022-08-21T10:06:20;6.78;;;4.18;;
24030;SDS011;12240;51.142;22.486;2022-08-21T10:08:48;5.00;;;3.47;;
24030;SDS011;12240;51.142;22.486;2022-08-21T10:11:17;8.23;;;3.60;;
24030;SDS011;12240;51.142;22.486;2022-08-21T10:19:59;7.35;;;3.45;;
24030;SDS011;12240;51.142;22.486;2022-08-21T10:23:00;6.72;;;3.55;;
24030;SDS011;12240;51.142;22.486;2022-08-21T10:26:05;5.90;;;3.50;;
24030;SDS011;12240;51.142;22.486;2022-08-21T10:31:51;9.88;;;3.60;;
24030;SDS011;12240;51.142;22.486;2022-08-21T10:43:44;5.50;;;3.10;;
24030;SDS011;12240;51.142;22.486;2022-08-21T10:46:50;3.78;;;2.85;;
24030;SDS011;12240;51.142;22.486;2022-08-21T10:50:06;4.35;;;3.17;;
24030;SDS011;12240;51.142;22.486;2022-08-21T10:55:20;7.80;;;3.10;;
24030;SDS011;12240;51.142;22.486;2022-08-21T10:58:09;4.47;;;2.72;;
24030;SDS011;12240;51.142;22.486;2022-08-21T11:01:07;5.63;;;2.90;;
24030;SDS011;12240;51.142;22.486;2022-08-21T11:03:45;4.70;;;3.10;;
24030;SDS011;12240;51.142;22.486;2022-08-21T11:06:24;3.95;;;2.88;;
24030;SDS011;12240;51.142;22.486;2022-08-21T11:09:02;8.18;;;3.10;;
24030;SDS011;12240;51.142;22.486;2022-08-21T11:14:49;5.65;;;3.10;;
24030;SDS011;12240;51.142;22.486;2022-08-21T11:18:01;6.78;;;2.70;;
24030;SDS011;12240;51.142;22.486;2022-08-21T11:24:15;5.65;;;2.63;;
24030;SDS011;12240;51.142;22.486;2022-08-21T11:30:11;3.95;;;2.58;;
24030;SDS011;12240;51.142;22.486;2022-08-21T11:38:35;3.50;;;2.47;;
24030;SDS011;12240;51.142;22.486;2022-08-21T11:44:02;2.50;;;2.08;;
24030;SDS011;12240;51.142;22.486;2022-08-21T11:53:01;28.17;;;3.58;;
24030;SDS011;12240;51.142;22.486;2022-08-21T11:55:43;3.53;;;2.28;;
24030;SDS011;12240;51.142;22.486;2022-08-21T12:01:43;3.63;;;2.42;;
24030;SDS011;12240;51.142;22.486;2022-08-21T12:04:08;4.68;;;2.42;;
24030;SDS011;12240;51.142;22.486;2022-08-21T12:07:09;3.13;;;2.25;;
24030;SDS011;12240;51.142;22.486;2022-08-21T12:09:51;5.25;;;2.53;;
24030;SDS011;12240;51.142;22.486;2022-08-21T12:12:26;5.18;;;2.13;;
24030;SDS011;12240;51.142;22.486;2022-08-21T12:18:06;5.68;;;2.70;;
24030;SDS011;12240;51.142;22.486;2022-08-21T12:21:00;6.72;;;2.72;;
24030;SDS011;12240;51.142;22.486;2022-08-21T12:23:33;3.78;;;2.25;;
24030;SDS011;12240;51.142;22.486;2022-08-21T12:26:51;4.75;;;2.22;;
24030;SDS011;12240;51.142;22.486;2022-08-21T12:29:45;5.03;;;2.70;;
24030;SDS011;12240;51.142;22.486;2022-08-21T12:32:24;3.20;;;2.45;;
24030;SDS011;12240;51.142;22.486;2022-08-21T12:41:16;5.03;;;2.78;;
24030;SDS011;12240;51.142;22.486;2022-08-21T12:43:59;4.28;;;2.80;;
24030;SDS011;12240;51.142;22.486;2022-08-21T12:46:36;4.38;;;2.60;;
24030;SDS011;12240;51.142;22.486;2022-08-21T12:49:15;6.35;;;2.40;;
24030;SDS011;12240;51.142;22.486;2022-08-21T12:54:38;4.07;;;2.50;;
24030;SDS011;12240;51.142;22.486;2022-08-21T12:57:17;2.70;;;2.40;;
24030;SDS011;12240;51.142;22.486;2022-08-21T12:59:55;4.30;;;2.30;;
24030;SDS011;12240;51.142;22.486;2022-08-21T13:02:37;3.55;;;2.50;;
24030;SDS011;12240;51.142;22.486;2022-08-21T13:05:35;4.35;;;2.45;;
24030;SDS011;12240;51.142;22.486;2022-08-21T13:08:08;5.77;;;2.53;;
24030;SDS011;12240;51.142;22.486;2022-08-21T13:10:40;4.60;;;2.20;;
24030;SDS011;12240;51.142;22.486;2022-08-21T13:13:12;3.88;;;2.38;;
24030;SDS011;12240;51.142;22.486;2022-08-21T13:15:58;4.38;;;2.35;;
24030;SDS011;12240;51.142;22.486;2022-08-21T13:18:39;3.97;;;2.40;;
24030;SDS011;12240;51.142;22.486;2022-08-21T13:21:33;6.07;;;2.63;;
24030;SDS011;12240;51.142;22.486;2022-08-21T13:27:24;4.43;;;2.50;;
24030;SDS011;12240;51.142;22.486;2022-08-21T13:32:42;3.08;;;2.45;;
24030;SDS011;12240;51.142;22.486;2022-08-21T13:35:15;3.60;;;2.90;;
24030;SDS011;12240;51.142;22.486;2022-08-21T13:37:48;3.75;;;2.38;;
24030;SDS011;12240;51.142;22.486;2022-08-21T13:40:20;3.33;;;2.60;;
24030;SDS011;12240;51.142;22.486;2022-08-21T13:43:10;4.60;;;2.67;;
24030;SDS011;12240;51.142;22.486;2022-08-21T13:45:52;4.45;;;2.72;;
24030;SDS011;12240;51.142;22.486;2022-08-21T13:48:22;4.35;;;2.70;;
24030;SDS011;12240;51.142;22.486;2022-08-21T13:50:55;9.23;;;2.97;;
24030;SDS011;12240;51.142;22.486;2022-08-21T13:53:33;7.93;;;2.63;;
24030;SDS011;12240;51.142;22.486;2022-08-21T13:56:08;6.30;;;3.20;;
24030;SDS011;12240;51.142;22.486;2022-08-21T13:58:43;3.65;;;2.60;;
24030;SDS011;12240;51.142;22.486;2022-08-21T14:01:25;5.65;;;2.65;;
24030;SDS011;12240;51.142;22.486;2022-08-21T14:04:20;3.80;;;2.97;;
24030;SDS011;12240;51.142;22.486;2022-08-21T14:06:53;3.78;;;2.70;;
24030;SDS011;12240;51.142;22.486;2022-08-21T14:09:39;6.97;;;2.67;;
24030;SDS011;12240;51.142;22.486;2022-08-21T14:12:14;5.57;;;2.60;;
24030;SDS011;12240;51.142;22.486;2022-08-21T14:15:17;3.25;;;2.90;;
24030;SDS011;12240;51.142;22.486;2022-08-21T14:17:51;3.47;;;2.70;;
24030;SDS011;12240;51.142;22.486;2022-08-21T14:20:30;3.50;;;2.47;;
24030;SDS011;12240;51.142;22.486;2022-08-21T14:23:02;3.15;;;2.55;;
24030;SDS011;12240;51.142;22.486;2022-08-21T14:25:37;4.72;;;2.50;;
24030;SDS011;12240;51.142;22.486;2022-08-21T14:28:15;4.00;;;2.50;;
24030;SDS011;12240;51.142;22.486;2022-08-21T14:30:55;5.45;;;2.30;;
24030;SDS011;12240;51.142;22.486;2022-08-21T14:33:29;3.00;;;2.40;;
24030;SDS011;12240;51.142;22.486;2022-08-21T14:35:59;4.38;;;2.75;;
24030;SDS011;12240;51.142;22.486;2022-08-21T14:38:29;4.15;;;2.60;;
24030;SDS011;12240;51.142;22.486;2022-08-21T14:41:03;7.40;;;3.67;;
24030;SDS011;12240;51.142;22.486;2022-08-21T14:43:56;4.05;;;2.90;;
24030;SDS011;12240;51.142;22.486;2022-08-21T14:46:36;4.72;;;2.50;;
24030;SDS011;12240;51.142;22.486;2022-08-21T14:49:21;6.10;;;2.75;;
24030;SDS011;12240;51.142;22.486;2022-08-21T14:51:55;2.92;;;2.40;;
24030;SDS011;12240;51.142;22.486;2022-08-21T14:54:28;6.28;;;2.47;;
24030;SDS011;12240;51.142;22.486;2022-08-21T14:57:04;5.47;;;2.50;;
24030;SDS011;12240;51.142;22.486;2022-08-21T14:59:38;2.72;;;2.30;;
24030;SDS011;12240;51.142;22.486;2022-08-21T15:02:07;3.25;;;2.60;;
24030;SDS011;12240;51.142;22.486;2022-08-21T15:04:36;7.10;;;2.83;;
24030;SDS011;12240;51.142;22.486;2022-08-21T15:07:05;5.47;;;2.60;;
24030;SDS011;12240;51.142;22.486;2022-08-21T15:09:33;4.80;;;2.67;;
24030;SDS011;12240;51.142;22.486;2022-08-21T15:12:01;3.08;;;2.60;;
24030;SDS011;12240;51.142;22.486;2022-08-21T15:14:32;4.43;;;2.50;;
24030;SDS011;12240;51.142;22.486;2022-08-21T15:17:03;2.83;;;2.47;;
24030;SDS011;12240;51.142;22.486;2022-08-21T15:19:34;4.40;;;2.70;;
24030;SDS011;12240;51.142;22.486;2022-08-21T15:22:03;4.47;;;2.80;;
24030;SDS011;12240;51.142;22.486;2022-08-21T15:24:41;4.88;;;2.60;;
24030;SDS011;12240;51.142;22.486;2022-08-21T15:27:10;5.13;;;2.88;;
24030;SDS011;12240;51.142;22.486;2022-08-21T15:29:42;6.13;;;2.58;;
24030;SDS011;12240;51.142;22.486;2022-08-21T15:32:24;4.68;;;2.40;;
24030;SDS011;12240;51.142;22.486;2022-08-21T15:34:56;3.75;;;2.47;;
24030;SDS011;12240;51.142;22.486;2022-08-21T15:37:25;4.40;;;2.45;;
24030;SDS011;12240;51.142;22.486;2022-08-21T15:39:53;5.10;;;2.35;;
24030;SDS011;12240;51.142;22.486;2022-08-21T15:42:22;3.58;;;2.45;;
24030;SDS011;12240;51.142;22.486;2022-08-21T15:44:52;4.20;;;2.47;;
24030;SDS011;12240;51.142;22.486;2022-08-21T15:47:33;4.72;;;2.55;;
24030;SDS011;12240;51.142;22.486;2022-08-21T15:50:06;4.20;;;2.50;;
24030;SDS011;12240;51.142;22.486;2022-08-21T15:52:36;3.78;;;2.63;;
24030;SDS011;12240;51.142;22.486;2022-08-21T15:55:05;34.92;;;3.42;;
24030;SDS011;12240;51.142;22.486;2022-08-21T15:57:35;5.13;;;2.20;;
24030;SDS011;12240;51.142;22.486;2022-08-21T16:00:10;3.20;;;2.28;;
24030;SDS011;12240;51.142;22.486;2022-08-21T16:02:46;4.75;;;2.30;;
24030;SDS011;12240;51.142;22.486;2022-08-21T16:05:19;6.30;;;2.60;;
24030;SDS011;12240;51.142;22.486;2022-08-21T16:07:49;3.35;;;2.47;;
24030;SDS011;12240;51.142;22.486;2022-08-21T16:10:20;4.20;;;2.70;;
24030;SDS011;12240;51.142;22.486;2022-08-21T16:12:57;5.00;;;2.80;;
24030;SDS011;12240;51.142;22.486;2022-08-21T16:15:30;4.97;;;2.40;;
24030;SDS011;12240;51.142;22.486;2022-08-21T16:17:59;4.35;;;2.70;;
24030;SDS011;12240;51.142;22.486;2022-08-21T16:20:28;4.00;;;2.50;;
24030;SDS011;12240;51.142;22.486;2022-08-21T16:22:57;5.85;;;2.58;;
24030;SDS011;12240;51.142;22.486;2022-08-21T16:25:26;4.30;;;2.65;;
24030;SDS011;12240;51.142;22.486;2022-08-21T16:27:57;11.52;;;2.88;;
24030;SDS011;12240;51.142;22.486;2022-08-21T16:30:28;3.85;;;2.92;;
24030;SDS011;12240;51.142;22.486;2022-08-21T16:32:58;4.75;;;2.67;;
24030;SDS011;12240;51.142;22.486;2022-08-21T16:35:29;6.10;;;2.90;;
24030;SDS011;12240;51.142;22.486;2022-08-21T16:37:58;3.88;;;2.60;;
24030;SDS011;12240;51.142;22.486;2022-08-21T16:40:27;5.18;;;2.70;;
24030;SDS011;12240;51.142;22.486;2022-08-21T16:42:56;3.47;;;2.60;;
24030;SDS011;12240;51.142;22.486;2022-08-21T16:45:24;9.07;;;2.97;;
24030;SDS011;12240;51.142;22.486;2022-08-21T16:47:59;7.55;;;3.00;;
24030;SDS011;12240;51.142;22.486;2022-08-21T16:50:30;4.68;;;3.53;;
24030;SDS011;12240;51.142;22.486;2022-08-21T16:52:59;4.63;;;3.13;;
24030;SDS011;12240;51.142;22.486;2022-08-21T16:55:27;12.02;;;3.00;;
24030;SDS011;12240;51.142;22.486;2022-08-21T16:57:55;6.22;;;2.72;;
24030;SDS011;12240;51.142;22.486;2022-08-21T17:00:24;5.00;;;2.72;;
24030;SDS011;12240;51.142;22.486;2022-08-21T17:02:53;6.70;;;3.00;;
24030;SDS011;12240;51.142;22.486;2022-08-21T17:05:24;4.95;;;3.10;;
24030;SDS011;12240;51.142;22.486;2022-08-21T17:07:54;4.88;;;3.17;;
24030;SDS011;12240;51.142;22.486;2022-08-21T17:10:22;6.45;;;3.00;;
24030;SDS011;12240;51.142;22.486;2022-08-21T17:12:55;6.30;;;2.95;;
24030;SDS011;12240;51.142;22.486;2022-08-21T17:15:26;4.65;;;2.75;;
24030;SDS011;12240;51.142;22.486;2022-08-21T17:18:03;4.75;;;2.90;;
24030;SDS011;12240;51.142;22.486;2022-08-21T17:23:08;9.43;;;3.35;;
24030;SDS011;12240;51.142;22.486;2022-08-21T17:25:38;3.20;;;2.63;;
24030;SDS011;12240;51.142;22.486;2022-08-21T17:28:14;4.75;;;2.90;;
24030;SDS011;12240;51.142;22.486;2022-08-21T17:30:53;4.03;;;3.20;;
24030;SDS011;12240;51.142;22.486;2022-08-21T17:33:25;5.13;;;3.05;;
24030;SDS011;12240;51.142;22.486;2022-08-21T17:35:55;4.55;;;3.00;;
24030;SDS011;12240;51.142;22.486;2022-08-21T17:38:24;9.10;;;3.25;;
24030;SDS011;12240;51.142;22.486;2022-08-21T17:40:54;4.80;;;2.95;;
24030;SDS011;12240;51.142;22.486;2022-08-21T17:43:22;4.18;;;2.83;;
24030;SDS011;12240;51.142;22.486;2022-08-21T17:45:51;8.43;;;3.20;;
24030;SDS011;12240;51.142;22.486;2022-08-21T17:48:20;4.72;;;3.08;;
24030;SDS011;12240;51.142;22.486;2022-08-21T17:50:51;6.68;;;3.10;;
24030;SDS011;12240;51.142;22.486;2022-08-21T17:53:19;5.97;;;3.05;;
24030;SDS011;12240;51.142;22.486;2022-08-21T17:55:48;6.43;;;3.40;;
24030;SDS011;12240;51.142;22.486;2022-08-21T17:58:17;6.40;;;3.35;;
24030;SDS011;12240;51.142;22.486;2022-08-21T18:00:45;6.75;;;3.38;;
24030;SDS011;12240;51.142;22.486;2022-08-21T18:03:17;8.80;;;3.40;;
24030;SDS011;12240;51.142;22.486;2022-08-21T18:05:52;7.45;;;3.42;;
24030;SDS011;12240;51.142;22.486;2022-08-21T18:08:23;6.18;;;3.13;;
24030;SDS011;12240;51.142;22.486;2022-08-21T18:10:52;8.57;;;3.33;;
24030;SDS011;12240;51.142;22.486;2022-08-21T18:13:28;7.07;;;3.67;;
24030;SDS011;12240;51.142;22.486;2022-08-21T18:16:03;6.97;;;3.33;;
24030;SDS011;12240;51.142;22.486;2022-08-21T18:18:39;9.17;;;3.27;;
24030;SDS011;12240;51.142;22.486;2022-08-21T18:21:09;4.78;;;3.67;;
24030;SDS011;12240;51.142;22.486;2022-08-21T18:23:37;5.60;;;3.63;;
24030;SDS011;12240;51.142;22.486;2022-08-21T18:26:15;7.40;;;3.42;;
24030;SDS011;12240;51.142;22.486;2022-08-21T18:28:55;6.47;;;3.45;;
24030;SDS011;12240;51.142;22.486;2022-08-21T18:31:27;7.45;;;3.70;;
24030;SDS011;12240;51.142;22.486;2022-08-21T18:34:04;8.13;;;3.90;;
24030;SDS011;12240;51.142;22.486;2022-08-21T18:36:49;9.38;;;3.78;;
24030;SDS011;12240;51.142;22.486;2022-08-21T18:39:19;6.00;;;3.97;;
24030;SDS011;12240;51.142;22.486;2022-08-21T18:42:07;5.95;;;3.65;;
24030;SDS011;12240;51.142;22.486;2022-08-21T18:44:39;7.75;;;3.80;;
24030;SDS011;12240;51.142;22.486;2022-08-21T18:49:55;8.40;;;4.13;;
24030;SDS011;12240;51.142;22.486;2022-08-21T18:52:24;6.30;;;3.75;;
24030;SDS011;12240;51.142;22.486;2022-08-21T18:55:13;7.40;;;4.25;;
24030;SDS011;12240;51.142;22.486;2022-08-21T18:57:44;6.70;;;4.03;;
24030;SDS011;12240;51.142;22.486;2022-08-21T19:00:26;6.93;;;4.50;;
24030;SDS011;12240;51.142;22.486;2022-08-21T19:02:59;6.97;;;4.05;;
24030;SDS011;12240;51.142;22.486;2022-08-21T19:05:32;8.43;;;4.30;;
24030;SDS011;12240;51.142;22.486;2022-08-21T19:08:02;5.80;;;3.92;;
24030;SDS011;12240;51.142;22.486;2022-08-21T19:10:31;7.65;;;4.35;;
24030;SDS011;12240;51.142;22.486;2022-08-21T19:13:00;5.65;;;3.90;;
24030;SDS011;12240;51.142;22.486;2022-08-21T19:15:33;10.13;;;4.32;;
24030;SDS011;12240;51.142;22.486;2022-08-21T19:18:06;9.77;;;4.50;;
24030;SDS011;12240;51.142;22.486;2022-08-21T19:20:43;10.65;;;4.47;;
24030;SDS011;12240;51.142;22.486;2022-08-21T19:23:14;7.28;;;4.15;;
24030;SDS011;12240;51.142;22.486;2022-08-21T19:25:44;6.50;;;4.43;;
24030;SDS011;12240;51.142;22.486;2022-08-21T19:28:20;9.70;;;4.50;;
24030;SDS011;12240;51.142;22.486;2022-08-21T19:31:02;9.07;;;4.88;;
24030;SDS011;12240;51.142;22.486;2022-08-21T19:33:54;9.05;;;4.18;;
24030;SDS011;12240;51.142;22.486;2022-08-21T19:36:38;7.47;;;4.55;;
24030;SDS011;12240;51.142;22.486;2022-08-21T19:39:08;7.80;;;4.38;;
24030;SDS011;12240;51.142;22.486;2022-08-21T19:41:40;9.95;;;3.83;;
24030;SDS011;12240;51.142;22.486;2022-08-21T19:44:18;9.05;;;4.57;;
24030;SDS011;12240;51.142;22.486;2022-08-21T19:46:50;7.13;;;5.10;;
24030;SDS011;12240;51.142;22.486;2022-08-21T19:49:24;10.13;;;5.30;;
24030;SDS011;12240;51.142;22.486;2022-08-21T19:52:00;11.57;;;5.03;;
24030;SDS011;12240;51.142;22.486;2022-08-21T19:54:40;8.25;;;4.53;;
24030;SDS011;12240;51.142;22.486;2022-08-21T19:57:08;10.65;;;4.68;;
24030;SDS011;12240;51.142;22.486;2022-08-21T19:59:39;9.55;;;5.28;;
24030;SDS011;12240;51.142;22.486;2022-08-21T20:02:09;9.88;;;4.97;;
24030;SDS011;12240;51.142;22.486;2022-08-21T20:04:40;7.88;;;4.90;;
24030;SDS011;12240;51.142;22.486;2022-08-21T20:07:20;10.45;;;4.55;;
24030;SDS011;12240;51.142;22.486;2022-08-21T20:09:53;7.60;;;4.90;;
24030;SDS011;12240;51.142;22.486;2022-08-21T20:12:22;7.60;;;5.25;;
24030;SDS011;12240;51.142;22.486;2022-08-21T20:14:51;7.00;;;5.07;;
24030;SDS011;12240;51.142;22.486;2022-08-21T20:17:20;7.38;;;4.85;;
24030;SDS011;12240;51.142;22.486;2022-08-21T20:19:52;9.65;;;4.75;;
24030;SDS011;12240;51.142;22.486;2022-08-21T20:22:40;8.43;;;5.38;;
24030;SDS011;12240;51.142;22.486;2022-08-21T20:25:08;9.02;;;5.22;;
24030;SDS011;12240;51.142;22.486;2022-08-21T20:27:36;9.40;;;5.30;;
24030;SDS011;12240;51.142;22.486;2022-08-21T20:30:07;8.00;;;5.00;;
24030;SDS011;12240;51.142;22.486;2022-08-21T20:32:37;8.90;;;5.00;;
24030;SDS011;12240;51.142;22.486;2022-08-21T20:35:09;9.50;;;4.90;;
24030;SDS011;12240;51.142;22.486;2022-08-21T20:37:57;6.53;;;5.00;;
24030;SDS011;12240;51.142;22.486;2022-08-21T20:40:25;7.80;;;4.93;;
24030;SDS011;12240;51.142;22.486;2022-08-21T20:42:59;9.90;;;5.20;;
24030;SDS011;12240;51.142;22.486;2022-08-21T20:45:30;8.18;;;5.10;;
24030;SDS011;12240;51.142;22.486;2022-08-21T20:50:54;9.10;;;5.57;;
24030;SDS011;12240;51.142;22.486;2022-08-21T20:53:47;7.03;;;4.78;;
24030;SDS011;12240;51.142;22.486;2022-08-21T20:59:47;7.82;;;4.70;;
24030;SDS011;12240;51.142;22.486;2022-08-21T21:08:09;17.75;;;5.55;;
24030;SDS011;12240;51.142;22.486;2022-08-21T21:10:58;7.93;;;5.30;;
24030;SDS011;12240;51.142;22.486;2022-08-21T21:13:45;9.13;;;5.15;;
24030;SDS011;12240;51.142;22.486;2022-08-21T21:16:23;8.00;;;5.25;;
24030;SDS011;12240;51.142;22.486;2022-08-21T21:19:02;9.10;;;5.18;;
24030;SDS011;12240;51.142;22.486;2022-08-21T21:21:48;7.03;;;5.20;;
24030;SDS011;12240;51.142;22.486;2022-08-21T21:24:27;10.02;;;5.25;;
24030;SDS011;12240;51.142;22.486;2022-08-21T21:32:53;9.73;;;5.40;;
24030;SDS011;12240;51.142;22.486;2022-08-21T21:35:24;8.32;;;5.25;;
24030;SDS011;12240;51.142;22.486;2022-08-21T21:38:30;7.55;;;5.25;;
24030;SDS011;12240;51.142;22.486;2022-08-21T21:50:55;8.38;;;5.43;;
24030;SDS011;12240;51.142;22.486;2022-08-21T21:53:49;12.52;;;5.55;;
24030;SDS011;12240;51.142;22.486;2022-08-21T22:05:12;11.18;;;5.47;;
24030;SDS011;12240;51.142;22.486;2022-08-21T22:11:07;14.10;;;6.33;;
24030;SDS011;12240;51.142;22.486;2022-08-21T22:16:36;7.57;;;5.60;;
24030;SDS011;12240;51.142;22.486;2022-08-21T22:19:08;9.05;;;5.68;;
24030;SDS011;12240;51.142;22.486;2022-08-21T22:21:51;13.20;;;5.72;;
24030;SDS011;12240;51.142;22.486;2022-08-21T22:24:39;7.53;;;4.88;;
24030;SDS011;12240;51.142;22.486;2022-08-21T22:27:17;10.48;;;5.55;;
24030;SDS011;12240;51.142;22.486;2022-08-21T22:32:37;11.07;;;5.72;;
24030;SDS011;12240;51.142;22.486;2022-08-21T22:37:55;8.68;;;5.15;;
24030;SDS011;12240;51.142;22.486;2022-08-21T22:40:27;11.38;;;5.70;;
24030;SDS011;12240;51.142;22.486;2022-08-21T22:43:03;7.80;;;6.07;;
24030;SDS011;12240;51.142;22.486;2022-08-21T22:48:29;12.00;;;6.22;;
24030;SDS011;12240;51.142;22.486;2022-08-21T22:51:09;14.82;;;6.20;;
24030;SDS011;12240;51.142;22.486;2022-08-21T22:56:27;9.93;;;6.00;;
24030;SDS011;12240;51.142;22.486;2022-08-21T22:59:21;10.98;;;6.18;;
24030;SDS011;12240;51.142;22.486;2022-08-21T23:01:57;11.38;;;5.35;;
24030;SDS011;12240;51.142;22.486;2022-08-21T23:04:30;8.93;;;5.28;;
24030;SDS011;12240;51.142;22.486;2022-08-21T23:07:00;10.55;;;5.38;;
24030;SDS011;12240;51.142;22.486;2022-08-21T23:09:35;8.75;;;5.93;;
24030;SDS011;12240;51.142;22.486;2022-08-21T23:12:29;10.00;;;5.35;;
24030;SDS011;12240;51.142;22.486;2022-08-21T23:15:05;8.93;;;5.80;;
24030;SDS011;12240;51.142;22.486;2022-08-21T23:17:48;8.60;;;5.63;;
24030;SDS011;12240;51.142;22.486;2022-08-21T23:21:04;10.88;;;6.00;;
24030;SDS011;12240;51.142;22.486;2022-08-21T23:23:59;10.00;;;5.72;;
24030;SDS011;12240;51.142;22.486;2022-08-21T23:30:12;8.05;;;5.95;;
24030;SDS011;12240;51.142;22.486;2022-08-21T23:32:56;10.07;;;5.82;;
24030;SDS011;12240;51.142;22.486;2022-08-21T23:35:44;8.43;;;5.57;;
24030;SDS011;12240;51.142;22.486;2022-08-21T23:39:13;13.05;;;6.28;;
24030;SDS011;12240;51.142;22.486;2022-08-21T23:48:26;10.60;;;5.78;;
24030;SDS011;12240;51.142;22.486;2022-08-21T23:51:00;7.78;;;5.55;;
24030;SDS011;12240;51.142;22.486;2022-08-21T23:53:36;9.27;;;6.28;;
